sensor_id;sensor_type;location;lat;lon;timestamp;pressure;altitude;pressure_sealevel;temperature;humidity
73457;BME280;61691;53.072;6.582;2023-12-04T00:02:04;101467.41;;;0.64;85.45
73457;BME280;61691;53.072;6.582;2023-12-04T00:04:30;101419.53;;;0.42;85.79
73457;BME280;61691;53.072;6.582;2023-12-04T00:06:58;101418.59;;;0.45;85.28
73457;BME280;61691;53.072;6.582;2023-12-04T00:09:24;101451.56;;;0.69;85.09
73457;BME280;61691;53.072;6.582;2023-12-04T00:11:51;101437.06;;;0.62;85.36
73457;BME280;61691;53.072;6.582;2023-12-04T00:14:19;101422.72;;;0.50;85.47
73457;BME280;61691;53.072;6.582;2023-12-04T00:16:45;101431.84;;;0.62;85.16
73457;BME280;61691;53.072;6.582;2023-12-04T00:19:12;101438.72;;;0.64;85.23
73457;BME280;61691;53.072;6.582;2023-12-04T00:21:39;101412.91;;;0.57;86.08
73457;BME280;61691;53.072;6.582;2023-12-04T00:24:06;101406.91;;;0.55;85.12
73457;BME280;61691;53.072;6.582;2023-12-04T00:26:33;101406.75;;;0.59;85.42
73457;BME280;61691;53.072;6.582;2023-12-04T00:28:59;101414.28;;;0.67;85.41
73457;BME280;61691;53.072;6.582;2023-12-04T00:31:27;101384.41;;;0.52;86.04
73457;BME280;61691;53.072;6.582;2023-12-04T00:33:54;101372.41;;;0.47;85.66
73457;BME280;61691;53.072;6.582;2023-12-04T00:36:21;101397.78;;;0.66;85.70
73457;BME280;61691;53.072;6.582;2023-12-04T00:38:48;101365.59;;;0.44;85.68
73457;BME280;61691;53.072;6.582;2023-12-04T00:41:15;101391.16;;;0.58;85.74
73457;BME280;61691;53.072;6.582;2023-12-04T00:43:42;101407.34;;;0.66;85.99
73457;BME280;61691;53.072;6.582;2023-12-04T00:46:08;101391.16;;;0.58;86.19
73457;BME280;61691;53.072;6.582;2023-12-04T00:48:36;101391.81;;;0.63;85.84
73457;BME280;61691;53.072;6.582;2023-12-04T00:51:03;101392.72;;;0.62;86.25
73457;BME280;61691;53.072;6.582;2023-12-04T00:53:30;101376.63;;;0.51;86.21
73457;BME280;61691;53.072;6.582;2023-12-04T00:55:57;101397.78;;;0.66;85.59
73457;BME280;61691;53.072;6.582;2023-12-04T00:58:23;101369.38;;;0.59;86.20
73457;BME280;61691;53.072;6.582;2023-12-04T01:00:50;101388.09;;;0.68;86.42
73457;BME280;61691;53.072;6.582;2023-12-04T01:03:18;101382.84;;;0.70;85.63
73457;BME280;61691;53.072;6.582;2023-12-04T01:05:46;101370.94;;;0.63;86.01
73457;BME280;61691;53.072;6.582;2023-12-04T01:08:12;101374.63;;;0.57;86.81
73457;BME280;61691;53.072;6.582;2023-12-04T01:10:39;101327.81;;;0.31;87.04
73457;BME280;61691;53.072;6.582;2023-12-04T01:13:06;101345.66;;;0.42;87.18
73457;BME280;61691;53.072;6.582;2023-12-04T01:15:33;101364.16;;;0.59;86.58
73457;BME280;61691;53.072;6.582;2023-12-04T01:18:00;101365.72;;;0.63;86.64
73457;BME280;61691;53.072;6.582;2023-12-04T01:20:27;101341.06;;;0.48;86.10
73457;BME280;61691;53.072;6.582;2023-12-04T01:22:54;101349.34;;;0.59;86.36
73457;BME280;61691;53.072;6.582;2023-12-04T01:25:20;101357.00;;;0.64;86.76
73457;BME280;61691;53.072;6.582;2023-12-04T01:27:47;101355.53;;;0.57;87.22
73457;BME280;61691;53.072;6.582;2023-12-04T01:30:14;101331.50;;;0.49;87.03
73457;BME280;61691;53.072;6.582;2023-12-04T01:32:41;101345.19;;;0.54;87.00
73457;BME280;61691;53.072;6.582;2023-12-04T01:35:08;101356.03;;;0.66;86.70
73457;BME280;61691;53.072;6.582;2023-12-04T01:37:34;101358.44;;;0.71;86.59
73457;BME280;61691;53.072;6.582;2023-12-04T01:40:01;101347.50;;;0.61;87.02
73457;BME280;61691;53.072;6.582;2023-12-04T01:42:28;101362.22;;;0.64;86.73
73457;BME280;61691;53.072;6.582;2023-12-04T01:44:55;101345.09;;;0.57;87.02
73457;BME280;61691;53.072;6.582;2023-12-04T01:47:22;101316.97;;;0.42;87.16
73457;BME280;61691;53.072;6.582;2023-12-04T01:49:49;101308.41;;;0.38;87.16
73457;BME280;61691;53.072;6.582;2023-12-04T01:52:16;101322.63;;;0.53;86.91
73457;BME280;61691;53.072;6.582;2023-12-04T01:54:43;101307.09;;;0.50;86.80
73457;BME280;61691;53.072;6.582;2023-12-04T01:57:10;101317.25;;;0.57;87.03
73457;BME280;61691;53.072;6.582;2023-12-04T01:59:37;101297.69;;;0.46;86.97
73457;BME280;61691;53.072;6.582;2023-12-04T02:02:05;101324.88;;;0.62;86.77
73457;BME280;61691;53.072;6.582;2023-12-04T02:04:32;101310.28;;;0.58;86.72
73457;BME280;61691;53.072;6.582;2023-12-04T02:06:59;101324.81;;;0.63;87.38
73457;BME280;61691;53.072;6.582;2023-12-04T02:09:26;101291.56;;;0.47;86.84
73457;BME280;61691;53.072;6.582;2023-12-04T02:11:53;101274.50;;;0.38;87.18
73457;BME280;61691;53.072;6.582;2023-12-04T02:14:24;101325.31;;;0.73;86.59
73457;BME280;61691;53.072;6.582;2023-12-04T02:16:52;101319.38;;;0.69;87.01
73457;BME280;61691;53.072;6.582;2023-12-04T02:19:21;101316.16;;;0.63;87.60
73457;BME280;61691;53.072;6.582;2023-12-04T02:21:47;101307.38;;;0.65;87.08
73457;BME280;61691;53.072;6.582;2023-12-04T02:24:14;101296.09;;;0.65;86.76
73457;BME280;61691;53.072;6.582;2023-12-04T02:26:53;101304.69;;;0.67;87.53
73457;BME280;61691;53.072;6.582;2023-12-04T02:29:26;101303.00;;;0.66;87.30
73457;BME280;61691;53.072;6.582;2023-12-04T02:31:57;101305.41;;;0.70;87.40
73457;BME280;61691;53.072;6.582;2023-12-04T02:34:25;101296.09;;;0.65;87.05
73457;BME280;61691;53.072;6.582;2023-12-04T02:36:54;101304.47;;;0.73;87.25
73457;BME280;61691;53.072;6.582;2023-12-04T02:39:21;101281.44;;;0.61;87.01
73457;BME280;61691;53.072;6.582;2023-12-04T02:41:48;101304.47;;;0.73;87.12
73457;BME280;61691;53.072;6.582;2023-12-04T02:44:15;101256.75;;;0.48;87.54
73457;BME280;61691;53.072;6.582;2023-12-04T02:46:42;101287.09;;;0.72;87.46
73457;BME280;61691;53.072;6.582;2023-12-04T02:49:09;101296.50;;;0.76;87.21
73457;BME280;61691;53.072;6.582;2023-12-04T02:51:36;101268.19;;;0.67;87.41
73457;BME280;61691;53.072;6.582;2023-12-04T02:54:03;101268.84;;;0.72;87.40
73457;BME280;61691;53.072;6.582;2023-12-04T02:56:30;101270.41;;;0.76;86.71
73457;BME280;61691;53.072;6.582;2023-12-04T02:58:56;101265.31;;;0.73;87.13
73457;BME280;61691;53.072;6.582;2023-12-04T03:01:23;101271.34;;;0.75;87.48
73457;BME280;61691;53.072;6.582;2023-12-04T03:03:49;101232.88;;;0.58;87.15
73457;BME280;61691;53.072;6.582;2023-12-04T03:06:17;101253.06;;;0.75;87.42
73457;BME280;61691;53.072;6.582;2023-12-04T03:08:43;101243.53;;;0.74;86.96
73457;BME280;61691;53.072;6.582;2023-12-04T03:11:10;101249.66;;;0.73;87.20
73457;BME280;61691;53.072;6.582;2023-12-04T03:13:37;101246.06;;;0.75;87.18
73457;BME280;61691;53.072;6.582;2023-12-04T03:16:04;101221.31;;;0.64;87.15
73457;BME280;61691;53.072;6.582;2023-12-04T03:18:30;101238.91;;;0.81;86.74
73457;BME280;61691;53.072;6.582;2023-12-04T03:20:57;101241.56;;;0.79;86.96
73457;BME280;61691;53.072;6.582;2023-12-04T03:23:24;101238.13;;;0.78;87.18
73457;BME280;61691;53.072;6.582;2023-12-04T03:25:51;101240.47;;;0.85;86.84
73457;BME280;61691;53.072;6.582;2023-12-04T03:28:17;101213.13;;;0.73;87.35
73457;BME280;61691;53.072;6.582;2023-12-04T03:30:44;101226.13;;;0.74;87.27
73457;BME280;61691;53.072;6.582;2023-12-04T03:33:12;101218.03;;;0.81;86.96
73457;BME280;61691;53.072;6.582;2023-12-04T03:35:39;101231.56;;;0.90;86.81
73457;BME280;61691;53.072;6.582;2023-12-04T03:38:06;101176.34;;;0.59;87.09
73457;BME280;61691;53.072;6.582;2023-12-04T03:40:32;101226.47;;;0.87;86.79
73457;BME280;61691;53.072;6.582;2023-12-04T03:42:59;101233.19;;;0.93;87.09
73457;BME280;61691;53.072;6.582;2023-12-04T03:45:26;101215.13;;;0.88;86.99
73457;BME280;61691;53.072;6.582;2023-12-04T03:47:53;101214.97;;;0.91;86.81
73457;BME280;61691;53.072;6.582;2023-12-04T03:50:20;101216.03;;;0.87;86.55
73457;BME280;61691;53.072;6.582;2023-12-04T03:52:46;101193.06;;;0.75;86.48
73457;BME280;61691;53.072;6.582;2023-12-04T03:55:13;101223.59;;;0.93;86.67
73457;BME280;61691;53.072;6.582;2023-12-04T03:57:41;101215.75;;;0.93;86.87
73457;BME280;61691;53.072;6.582;2023-12-04T04:00:09;101225.28;;;0.94;86.80
73457;BME280;61691;53.072;6.582;2023-12-04T04:02:36;101214.06;;;0.92;86.85
73457;BME280;61691;53.072;6.582;2023-12-04T04:05:03;101195.09;;;0.89;86.69
73457;BME280;61691;53.072;6.582;2023-12-04T04:07:30;101198.91;;;1.00;86.92
73457;BME280;61691;53.072;6.582;2023-12-04T04:09:57;101147.69;;;0.57;86.73
73457;BME280;61691;53.072;6.582;2023-12-04T04:12:24;101182.31;;;0.83;86.52
73457;BME280;61691;53.072;6.582;2023-12-04T04:14:50;101181.25;;;0.87;86.67
73457;BME280;61691;53.072;6.582;2023-12-04T04:17:17;101207.81;;;0.96;86.99
73457;BME280;61691;53.072;6.582;2023-12-04T04:19:44;101165.13;;;0.77;86.86
73457;BME280;61691;53.072;6.582;2023-12-04T04:22:10;101176.03;;;0.87;86.65
73457;BME280;61691;53.072;6.582;2023-12-04T04:24:37;101202.31;;;1.02;86.36
73457;BME280;61691;53.072;6.582;2023-12-04T04:27:04;101184.97;;;1.01;86.60
73457;BME280;61691;53.072;6.582;2023-12-04T04:29:31;101164.47;;;0.92;86.56
73457;BME280;61691;53.072;6.582;2023-12-04T04:31:58;101156.78;;;0.89;86.92
73457;BME280;61691;53.072;6.582;2023-12-04T04:34:24;101164.63;;;0.89;86.70
73457;BME280;61691;53.072;6.582;2023-12-04T04:36:51;101188.22;;;1.06;86.67
73457;BME280;61691;53.072;6.582;2023-12-04T04:39:18;101156.53;;;0.95;86.62
73457;BME280;61691;53.072;6.582;2023-12-04T04:41:45;101173.63;;;1.02;86.78
73457;BME280;61691;53.072;6.582;2023-12-04T04:44:11;101178.50;;;1.10;86.57
73457;BME280;61691;53.072;6.582;2023-12-04T04:46:38;101173.97;;;1.13;86.17
73457;BME280;61691;53.072;6.582;2023-12-04T04:49:05;101175.84;;;1.11;86.41
73457;BME280;61691;53.072;6.582;2023-12-04T04:51:34;101158.59;;;1.07;85.97
73457;BME280;61691;53.072;6.582;2023-12-04T04:54:01;101147.78;;;0.96;86.19
73457;BME280;61691;53.072;6.582;2023-12-04T04:56:29;101142.56;;;0.96;85.95
73457;BME280;61691;53.072;6.582;2023-12-04T04:58:56;101131.31;;;0.94;85.95
73457;BME280;61691;53.072;6.582;2023-12-04T05:01:23;101151.66;;;1.06;86.38
73457;BME280;61691;53.072;6.582;2023-12-04T05:03:49;101155.06;;;1.08;86.30
73457;BME280;61691;53.072;6.582;2023-12-04T05:06:16;101129.34;;;0.99;85.96
73457;BME280;61691;53.072;6.582;2023-12-04T05:08:43;101145.47;;;1.09;85.86
73457;BME280;61691;53.072;6.582;2023-12-04T05:11:10;101144.16;;;0.99;85.79
73457;BME280;61691;53.072;6.582;2023-12-04T05:13:37;101143.19;;;1.01;86.18
73457;BME280;61691;53.072;6.582;2023-12-04T05:16:04;101143.25;;;1.00;86.24
73457;BME280;61691;53.072;6.582;2023-12-04T05:18:31;101131.06;;;1.00;86.42
73457;BME280;61691;53.072;6.582;2023-12-04T05:20:58;101136.84;;;1.07;85.85
73457;BME280;61691;53.072;6.582;2023-12-04T05:23:25;101127.41;;;1.04;85.82
73457;BME280;61691;53.072;6.582;2023-12-04T05:25:52;101109.81;;;0.89;85.85
73457;BME280;61691;53.072;6.582;2023-12-04T05:28:18;101107.84;;;0.94;85.97
73457;BME280;61691;53.072;6.582;2023-12-04T05:30:45;101097.47;;;0.93;85.79
73457;BME280;61691;53.072;6.582;2023-12-04T05:33:12;101130.53;;;1.12;85.95
73457;BME280;61691;53.072;6.582;2023-12-04T05:35:39;101104.03;;;1.01;85.78
73457;BME280;61691;53.072;6.582;2023-12-04T05:38:06;101128.69;;;1.14;85.89
73457;BME280;61691;53.072;6.582;2023-12-04T05:40:34;101121.75;;;1.13;85.88
73457;BME280;61691;53.072;6.582;2023-12-04T05:43:01;101118.19;;;1.16;85.63
73457;BME280;61691;53.072;6.582;2023-12-04T05:45:27;101115.50;;;1.17;85.60
73457;BME280;61691;53.072;6.582;2023-12-04T05:47:54;101111.31;;;1.13;85.65
73457;BME280;61691;53.072;6.582;2023-12-04T05:50:21;101123.06;;;1.24;85.64
73457;BME280;61691;53.072;6.582;2023-12-04T05:52:48;101108.59;;;1.16;85.40
73457;BME280;61691;53.072;6.582;2023-12-04T05:55:14;101092.41;;;1.08;85.36
73457;BME280;61691;53.072;6.582;2023-12-04T05:57:41;101086.69;;;1.00;85.50
73457;BME280;61691;53.072;6.582;2023-12-04T06:00:09;101083.03;;;1.04;85.47
73457;BME280;61691;53.072;6.582;2023-12-04T06:02:39;101090.59;;;1.10;85.11
73457;BME280;61691;53.072;6.582;2023-12-04T06:05:06;101118.97;;;1.18;84.99
73457;BME280;61691;53.072;6.582;2023-12-04T06:07:35;101116.13;;;1.23;85.02
73457;BME280;61691;53.072;6.582;2023-12-04T06:10:02;101103.88;;;1.25;85.21
73457;BME280;61691;53.072;6.582;2023-12-04T06:12:32;101073.63;;;1.00;85.05
73457;BME280;61691;53.072;6.582;2023-12-04T06:15:00;101085.72;;;1.03;84.99
73457;BME280;61691;53.072;6.582;2023-12-04T06:17:27;101098.13;;;1.16;84.76
73457;BME280;61691;53.072;6.582;2023-12-04T06:19:54;101099.84;;;1.17;85.21
73457;BME280;61691;53.072;6.582;2023-12-04T06:22:20;101063.34;;;0.97;84.94
73457;BME280;61691;53.072;6.582;2023-12-04T06:24:48;101073.28;;;1.08;85.07
73457;BME280;61691;53.072;6.582;2023-12-04T06:27:16;101080.00;;;1.13;84.72
73457;BME280;61691;53.072;6.582;2023-12-04T06:29:47;101079.75;;;1.20;85.14
73457;BME280;61691;53.072;6.582;2023-12-04T06:32:19;101081.56;;;1.17;84.94
73457;BME280;61691;53.072;6.582;2023-12-04T06:34:46;101064.59;;;1.07;84.61
73457;BME280;61691;53.072;6.582;2023-12-04T06:37:15;101031.50;;;0.89;84.79
73457;BME280;61691;53.072;6.582;2023-12-04T06:39:44;101071.41;;;1.11;84.17
73457;BME280;61691;53.072;6.582;2023-12-04T06:42:12;101061.72;;;1.13;84.63
73457;BME280;61691;53.072;6.582;2023-12-04T06:44:39;101055.00;;;1.08;84.86
73457;BME280;61691;53.072;6.582;2023-12-04T06:47:08;101072.03;;;1.16;84.29
73457;BME280;61691;53.072;6.582;2023-12-04T06:49:35;101053.25;;;1.08;84.65
73457;BME280;61691;53.072;6.582;2023-12-04T06:52:03;101019.50;;;0.85;84.08
73457;BME280;61691;53.072;6.582;2023-12-04T06:54:30;101057.69;;;1.06;84.27
73457;BME280;61691;53.072;6.582;2023-12-04T06:56:57;101062.91;;;1.06;84.20
73457;BME280;61691;53.072;6.582;2023-12-04T06:59:23;101045.97;;;0.96;84.24
73457;BME280;61691;53.072;6.582;2023-12-04T07:01:50;101050.88;;;1.04;84.58
73457;BME280;61691;53.072;6.582;2023-12-04T07:04:17;101050.75;;;1.05;84.24
73457;BME280;61691;53.072;6.582;2023-12-04T07:06:48;101055.88;;;1.08;84.60
73457;BME280;61691;53.072;6.582;2023-12-04T07:09:16;101044.13;;;0.98;84.13
73457;BME280;61691;53.072;6.582;2023-12-04T07:11:46;101047.53;;;1.00;84.32
73457;BME280;61691;53.072;6.582;2023-12-04T07:14:13;101038.91;;;0.98;83.95
73457;BME280;61691;53.072;6.582;2023-12-04T07:16:41;101023.41;;;0.95;83.86
73457;BME280;61691;53.072;6.582;2023-12-04T07:19:09;101040.59;;;0.99;83.96
73457;BME280;61691;53.072;6.582;2023-12-04T07:21:37;101032.94;;;0.96;83.85
73457;BME280;61691;53.072;6.582;2023-12-04T07:24:05;101015.06;;;0.87;83.79
73457;BME280;61691;53.072;6.582;2023-12-04T07:26:33;101001.53;;;0.79;83.76
73457;BME280;61691;53.072;6.582;2023-12-04T07:29:01;101003.84;;;0.85;83.71
73457;BME280;61691;53.072;6.582;2023-12-04T07:31:28;101023.53;;;0.92;83.63
73457;BME280;61691;53.072;6.582;2023-12-04T07:33:55;101019.09;;;0.94;83.88
73457;BME280;61691;53.072;6.582;2023-12-04T07:36:22;101014.66;;;0.96;83.86
73457;BME280;61691;53.072;6.582;2023-12-04T07:38:50;101013.38;;;0.86;83.05
73457;BME280;61691;53.072;6.582;2023-12-04T07:41:17;101011.97;;;0.98;83.74
73457;BME280;61691;53.072;6.582;2023-12-04T07:43:44;101012.97;;;0.95;83.27
73457;BME280;61691;53.072;6.582;2023-12-04T07:46:11;101006.84;;;0.96;83.26
73457;BME280;61691;53.072;6.582;2023-12-04T07:48:38;100990.50;;;0.91;83.09
73457;BME280;61691;53.072;6.582;2023-12-04T07:51:07;101010.97;;;1.00;82.91
73457;BME280;61691;53.072;6.582;2023-12-04T07:53:33;100979.22;;;0.91;82.95
73457;BME280;61691;53.072;6.582;2023-12-04T07:56:01;101009.00;;;1.05;83.13
73457;BME280;61691;53.072;6.582;2023-12-04T07:58:30;100985.84;;;0.98;82.76
73457;BME280;61691;53.072;6.582;2023-12-04T08:00:58;101013.47;;;1.03;82.72
73457;BME280;61691;53.072;6.582;2023-12-04T08:03:25;101003.66;;;1.08;82.46
73457;BME280;61691;53.072;6.582;2023-12-04T08:05:53;100990.66;;;1.07;82.24
73457;BME280;61691;53.072;6.582;2023-12-04T08:08:20;101000.00;;;1.12;82.19
73457;BME280;61691;53.072;6.582;2023-12-04T08:10:47;100989.69;;;1.09;81.98
73457;BME280;61691;53.072;6.582;2023-12-04T08:13:15;100974.31;;;1.03;81.71
73457;BME280;61691;53.072;6.582;2023-12-04T08:15:43;101003.72;;;1.26;82.17
73457;BME280;61691;53.072;6.582;2023-12-04T08:18:11;100983.25;;;1.16;81.71
73457;BME280;61691;53.072;6.582;2023-12-04T08:20:37;100997.59;;;1.27;81.14
73457;BME280;61691;53.072;6.582;2023-12-04T08:23:07;100988.69;;;1.31;81.44
73457;BME280;61691;53.072;6.582;2023-12-04T08:25:34;100960.91;;;1.11;81.35
73457;BME280;61691;53.072;6.582;2023-12-04T08:28:04;100975.31;;;1.20;81.38
73457;BME280;61691;53.072;6.582;2023-12-04T08:30:32;100973.59;;;1.19;80.88
73457;BME280;61691;53.072;6.582;2023-12-04T08:32:59;100991.28;;;1.31;80.98
73457;BME280;61691;53.072;6.582;2023-12-04T08:35:26;100962.44;;;1.15;80.49
73457;BME280;61691;53.072;6.582;2023-12-04T08:37:53;100976.69;;;1.27;80.60
73457;BME280;61691;53.072;6.582;2023-12-04T08:40:20;100968.72;;;1.30;80.58
73457;BME280;61691;53.072;6.582;2023-12-04T08:42:47;100986.44;;;1.42;80.60
73457;BME280;61691;53.072;6.582;2023-12-04T08:45:14;100970.09;;;1.37;80.42
73457;BME280;61691;53.072;6.582;2023-12-04T08:47:44;100962.06;;;1.41;80.97
73457;BME280;61691;53.072;6.582;2023-12-04T08:50:11;100960.44;;;1.39;80.44
73457;BME280;61691;53.072;6.582;2023-12-04T08:52:37;100966.22;;;1.45;80.63
73457;BME280;61691;53.072;6.582;2023-12-04T08:55:08;100963.53;;;1.47;79.86
73457;BME280;61691;53.072;6.582;2023-12-04T08:57:35;100863.84;;;0.84;79.06
73457;BME280;61691;53.072;6.582;2023-12-04T09:00:02;100901.78;;;1.10;79.94
73457;BME280;61691;53.072;6.582;2023-12-04T09:02:30;100954.91;;;1.45;79.88
73457;BME280;61691;53.072;6.582;2023-12-04T09:04:58;100963.53;;;1.47;79.53
73457;BME280;61691;53.072;6.582;2023-12-04T09:07:26;100868.88;;;0.89;79.56
73457;BME280;61691;53.072;6.582;2023-12-04T09:10:13;100957.47;;;1.46;80.06
73457;BME280;61691;53.072;6.582;2023-12-04T09:12:56;100903.03;;;1.20;79.38
73457;BME280;61691;53.072;6.582;2023-12-04T09:15:22;100957.03;;;1.55;79.21
73457;BME280;61691;53.072;6.582;2023-12-04T09:17:49;100859.59;;;1.00;78.76
73457;BME280;61691;53.072;6.582;2023-12-04T09:20:16;100948.94;;;1.60;79.08
73457;BME280;61691;53.072;6.582;2023-12-04T09:22:43;100924.97;;;1.52;78.48
73457;BME280;61691;53.072;6.582;2023-12-04T09:25:18;100953.72;;;1.69;77.07
73457;BME280;61691;53.072;6.582;2023-12-04T09:27:45;100925.13;;;1.49;77.53
73457;BME280;61691;53.072;6.582;2023-12-04T09:30:12;100958.81;;;1.72;77.91
73457;BME280;61691;53.072;6.582;2023-12-04T09:32:40;100919.59;;;1.55;78.32
73457;BME280;61691;53.072;6.582;2023-12-04T09:35:07;100941.44;;;1.71;78.02
73457;BME280;61691;53.072;6.582;2023-12-04T09:37:34;100931.66;;;1.75;77.72
73457;BME280;61691;53.072;6.582;2023-12-04T09:40:01;100952.66;;;1.90;78.25
73457;BME280;61691;53.072;6.582;2023-12-04T09:42:29;100957.56;;;1.97;77.37
73457;BME280;61691;53.072;6.582;2023-12-04T09:44:58;100954.22;;;1.94;77.11
73457;BME280;61691;53.072;6.582;2023-12-04T09:47:25;100908.53;;;1.67;77.29
73457;BME280;61691;53.072;6.582;2023-12-04T09:49:53;100942.38;;;1.87;76.92
73457;BME280;61691;53.072;6.582;2023-12-04T09:52:22;100946.13;;;1.99;77.17
73457;BME280;61691;53.072;6.582;2023-12-04T09:54:50;100942.59;;;2.00;77.24
73457;BME280;61691;53.072;6.582;2023-12-04T09:57:17;100930.38;;;2.01;76.96
73457;BME280;61691;53.072;6.582;2023-12-04T09:59:44;100919.44;;;1.92;76.54
73457;BME280;61691;53.072;6.582;2023-12-04T10:02:11;100941.09;;;2.12;77.02
73457;BME280;61691;53.072;6.582;2023-12-04T10:04:39;100816.00;;;1.37;75.58
73457;BME280;61691;53.072;6.582;2023-12-04T10:07:08;100924.81;;;2.07;76.87
73457;BME280;61691;53.072;6.582;2023-12-04T10:09:34;100933.06;;;2.16;76.45
73457;BME280;61691;53.072;6.582;2023-12-04T10:12:01;100915.47;;;2.03;75.78
73457;BME280;61691;53.072;6.582;2023-12-04T10:14:28;100945.72;;;2.24;75.79
73457;BME280;61691;53.072;6.582;2023-12-04T10:16:55;100937.19;;;2.20;76.53
73457;BME280;61691;53.072;6.582;2023-12-04T10:19:25;100946.94;;;2.34;75.89
73457;BME280;61691;53.072;6.582;2023-12-04T10:21:57;100926.31;;;2.28;75.65
73457;BME280;61691;53.072;6.582;2023-12-04T10:24:34;100932.06;;;2.34;75.63
73457;BME280;61691;53.072;6.582;2023-12-04T10:27:04;100935.31;;;2.40;75.30
73457;BME280;61691;53.072;6.582;2023-12-04T10:29:50;100932.59;;;2.41;75.04
73457;BME280;61691;53.072;6.582;2023-12-04T10:32:21;100930.63;;;2.29;73.75
73457;BME280;61691;53.072;6.582;2023-12-04T10:34:50;100904.03;;;2.21;74.70
73457;BME280;61691;53.072;6.582;2023-12-04T10:37:17;100907.25;;;2.26;74.80
73457;BME280;61691;53.072;6.582;2023-12-04T10:39:48;100902.19;;;2.23;74.14
73457;BME280;61691;53.072;6.582;2023-12-04T10:42:25;100898.19;;;2.33;73.60
73457;BME280;61691;53.072;6.582;2023-12-04T10:44:56;100876.19;;;2.20;74.41
73457;BME280;61691;53.072;6.582;2023-12-04T10:47:28;100896.31;;;2.35;74.60
73457;BME280;61691;53.072;6.582;2023-12-04T10:49:56;100885.69;;;2.38;74.84
73457;BME280;61691;53.072;6.582;2023-12-04T10:52:23;100857.88;;;2.20;74.33
73457;BME280;61691;53.072;6.582;2023-12-04T10:54:50;100891.50;;;2.43;74.62
73457;BME280;61691;53.072;6.582;2023-12-04T10:57:25;100875.22;;;2.38;74.65
73457;BME280;61691;53.072;6.582;2023-12-04T10:59:57;100879.34;;;2.42;73.59
73457;BME280;61691;53.072;6.582;2023-12-04T11:02:26;100879.28;;;2.44;73.89
73457;BME280;61691;53.072;6.582;2023-12-04T11:05:12;100883.50;;;2.46;73.89
73457;BME280;61691;53.072;6.582;2023-12-04T11:07:50;100870.59;;;2.43;73.03
73457;BME280;61691;53.072;6.582;2023-12-04T11:10:56;100875.06;;;2.57;74.27
73457;BME280;61691;53.072;6.582;2023-12-04T11:13:27;100862.84;;;2.57;73.25
73457;BME280;61691;53.072;6.582;2023-12-04T11:16:56;100863.25;;;2.65;73.33
73457;BME280;61691;53.072;6.582;2023-12-04T11:19:26;100791.66;;;2.35;73.94
73457;BME280;61691;53.072;6.582;2023-12-04T11:21:58;100852.88;;;2.80;73.14
73457;BME280;61691;53.072;6.582;2023-12-04T11:24:25;100844.28;;;2.78;73.29
73457;BME280;61691;53.072;6.582;2023-12-04T11:26:52;100839.78;;;2.80;72.55
73457;BME280;61691;53.072;6.582;2023-12-04T11:29:20;100826.13;;;2.75;72.83
73457;BME280;61691;53.072;6.582;2023-12-04T11:31:48;100834.91;;;2.89;71.85
73457;BME280;61691;53.072;6.582;2023-12-04T11:34:14;100832.19;;;2.91;72.63
73457;BME280;61691;53.072;6.582;2023-12-04T11:36:41;100793.03;;;2.73;72.66
73457;BME280;61691;53.072;6.582;2023-12-04T11:39:09;100815.81;;;2.87;72.28
73457;BME280;61691;53.072;6.582;2023-12-04T11:41:37;100827.31;;;2.85;70.85
73457;BME280;61691;53.072;6.582;2023-12-04T11:44:12;100823.16;;;2.81;71.28
73457;BME280;61691;53.072;6.582;2023-12-04T11:46:57;100780.03;;;2.56;71.68
73457;BME280;61691;53.072;6.582;2023-12-04T11:49:28;100819.88;;;2.77;71.07
73457;BME280;61691;53.072;6.582;2023-12-04T11:51:57;100832.69;;;2.82;71.61
73457;BME280;61691;53.072;6.582;2023-12-04T11:54:27;100818.50;;;2.86;71.86
73457;BME280;61691;53.072;6.582;2023-12-04T11:59:37;100822.38;;;2.79;71.47
73457;BME280;61691;53.072;6.582;2023-12-04T12:02:09;100815.66;;;2.75;71.07
73457;BME280;61691;53.072;6.582;2023-12-04T12:04:37;100802.84;;;2.70;70.60
73457;BME280;61691;53.072;6.582;2023-12-04T12:07:05;100811.19;;;2.77;70.47
73457;BME280;61691;53.072;6.582;2023-12-04T12:09:33;100810.06;;;2.81;71.26
73457;BME280;61691;53.072;6.582;2023-12-04T12:12:01;100767.53;;;2.61;71.13
73457;BME280;61691;53.072;6.582;2023-12-04T12:14:29;100791.41;;;2.71;70.69
73457;BME280;61691;53.072;6.582;2023-12-04T12:16:59;100792.09;;;2.75;70.83
73457;BME280;61691;53.072;6.582;2023-12-04T12:19:27;100766.19;;;2.70;71.22
73457;BME280;61691;53.072;6.582;2023-12-04T12:21:54;100786.78;;;2.76;69.61
73457;BME280;61691;53.072;6.582;2023-12-04T12:24:23;100778.00;;;2.77;70.81
73457;BME280;61691;53.072;6.582;2023-12-04T12:26:50;100789.31;;;2.78;70.17
73457;BME280;61691;53.072;6.582;2023-12-04T12:29:17;100789.31;;;2.78;70.57
73457;BME280;61691;53.072;6.582;2023-12-04T12:31:44;100779.69;;;2.78;70.41
73457;BME280;61691;53.072;6.582;2023-12-04T12:34:14;100764.44;;;2.70;70.66
73457;BME280;61691;53.072;6.582;2023-12-04T12:36:41;100775.13;;;2.82;70.21
73457;BME280;61691;53.072;6.582;2023-12-04T12:39:08;100753.84;;;2.72;69.94
73457;BME280;61691;53.072;6.582;2023-12-04T12:41:36;100747.59;;;2.75;70.33
73457;BME280;61691;53.072;6.582;2023-12-04T12:44:02;100765.97;;;2.89;68.79
73457;BME280;61691;53.072;6.582;2023-12-04T12:46:30;100771.53;;;2.98;70.21
73457;BME280;61691;53.072;6.582;2023-12-04T12:48:57;100727.44;;;2.77;70.11
73457;BME280;61691;53.072;6.582;2023-12-04T12:51:25;100748.22;;;2.94;69.74
73457;BME280;61691;53.072;6.582;2023-12-04T12:53:53;100747.81;;;2.86;69.48
73457;BME280;61691;53.072;6.582;2023-12-04T12:56:20;100741.84;;;2.84;68.99
73457;BME280;61691;53.072;6.582;2023-12-04T12:58:48;100745.38;;;2.83;69.27
73457;BME280;61691;53.072;6.582;2023-12-04T13:01:16;100725.91;;;2.72;69.54
73457;BME280;61691;53.072;6.582;2023-12-04T13:03:45;100720.75;;;2.71;69.17
73457;BME280;61691;53.072;6.582;2023-12-04T13:06:14;100727.16;;;2.81;69.27
73457;BME280;61691;53.072;6.582;2023-12-04T13:08:40;100723.03;;;2.77;69.21